sensor_id;sensor_type;location;lat;lon;timestamp;temperature;humidity
13673;DHT22;6909;52.202;9.876;2024-03-23T00:52:40;6.30;99.90
13673;DHT22;6909;52.202;9.876;2024-03-23T00:55:05;6.30;99.90
13673;DHT22;6909;52.202;9.876;2024-03-23T00:57:33;6.30;99.90
13673;DHT22;6909;52.202;9.876;2024-03-23T00:59:58;6.30;99.90
13673;DHT22;6909;52.202;9.876;2024-03-23T01:02:25;6.40;99.90
13673;DHT22;6909;52.202;9.876;2024-03-23T01:04:50;6.30;99.90
13673;DHT22;6909;52.202;9.876;2024-03-23T01:07:17;6.40;99.90
13673;DHT22;6909;52.202;9.876;2024-03-23T01:09:44;6.40;99.90
13673;DHT22;6909;52.202;9.876;2024-03-23T01:12:11;6.40;99.90
13673;DHT22;6909;52.202;9.876;2024-03-23T01:14:36;6.40;99.90
13673;DHT22;6909;52.202;9.876;2024-03-23T01:17:03;6.40;99.90
13673;DHT22;6909;52.202;9.876;2024-03-23T01:19:29;6.40;99.90
13673;DHT22;6909;52.202;9.876;2024-03-23T01:21:55;6.40;99.90
13673;DHT22;6909;52.202;9.876;2024-03-23T01:24:21;6.40;99.90
13673;DHT22;6909;52.202;9.876;2024-03-23T01:26:49;6.40;99.90
13673;DHT22;6909;52.202;9.876;2024-03-23T01:29:15;6.40;99.90
13673;DHT22;6909;52.202;9.876;2024-03-23T01:31:41;6.40;99.90
13673;DHT22;6909;52.202;9.876;2024-03-23T01:34:07;6.40;99.90
13673;DHT22;6909;52.202;9.876;2024-03-23T01:36:34;6.30;99.90
13673;DHT22;6909;52.202;9.876;2024-03-23T01:39:02;6.40;99.90
13673;DHT22;6909;52.202;9.876;2024-03-23T01:41:29;6.40;99.90
13673;DHT22;6909;52.202;9.876;2024-03-23T01:43:56;6.30;99.90
13673;DHT22;6909;52.202;9.876;2024-03-23T01:46:23;6.40;99.90
13673;DHT22;6909;52.202;9.876;2024-03-23T01:48:49;6.40;99.90
13673;DHT22;6909;52.202;9.876;2024-03-23T01:51:16;6.40;99.90
13673;DHT22;6909;52.202;9.876;2024-03-23T01:53:42;6.30;99.90
13673;DHT22;6909;52.202;9.876;2024-03-23T01:56:08;6.30;99.90
13673;DHT22;6909;52.202;9.876;2024-03-23T01:58:34;6.30;99.90
13673;DHT22;6909;52.202;9.876;2024-03-23T02:01:02;6.30;99.90
13673;DHT22;6909;52.202;9.876;2024-03-23T02:03:28;6.30;99.90
13673;DHT22;6909;52.202;9.876;2024-03-23T02:05:56;6.30;99.90
13673;DHT22;6909;52.202;9.876;2024-03-23T02:08:23;6.30;99.90
13673;DHT22;6909;52.202;9.876;2024-03-23T02:10:50;6.30;99.90
13673;DHT22;6909;52.202;9.876;2024-03-23T02:13:16;6.30;99.90
13673;DHT22;6909;52.202;9.876;2024-03-23T02:15:42;6.30;99.90
13673;DHT22;6909;52.202;9.876;2024-03-23T02:18:10;6.30;99.90
13673;DHT22;6909;52.202;9.876;2024-03-23T02:20:36;6.30;99.90
13673;DHT22;6909;52.202;9.876;2024-03-23T02:23:04;6.30;99.90
13673;DHT22;6909;52.202;9.876;2024-03-23T02:25:32;6.30;99.90
13673;DHT22;6909;52.202;9.876;2024-03-23T02:27:57;6.30;99.90
13673;DHT22;6909;52.202;9.876;2024-03-23T02:30:25;6.30;99.90
13673;DHT22;6909;52.202;9.876;2024-03-23T02:32:50;6.30;99.90
13673;DHT22;6909;52.202;9.876;2024-03-23T02:35:17;6.30;99.90
13673;DHT22;6909;52.202;9.876;2024-03-23T02:37:43;6.20;99.90
13673;DHT22;6909;52.202;9.876;2024-03-23T02:40:11;6.20;99.90
13673;DHT22;6909;52.202;9.876;2024-03-23T02:42:36;6.10;99.90
13673;DHT22;6909;52.202;9.876;2024-03-23T02:45:04;6.10;99.90
13673;DHT22;6909;52.202;9.876;2024-03-23T02:47:30;6.10;99.90
13673;DHT22;6909;52.202;9.876;2024-03-23T02:49:57;6.10;99.90
13673;DHT22;6909;52.202;9.876;2024-03-23T02:52:22;6.10;99.90
13673;DHT22;6909;52.202;9.876;2024-03-23T02:54:49;6.00;99.90
13673;DHT22;6909;52.202;9.876;2024-03-23T02:57:16;6.00;99.90
13673;DHT22;6909;52.202;9.876;2024-03-23T02:59:43;6.00;99.90
13673;DHT22;6909;52.202;9.876;2024-03-23T03:02:08;6.00;99.90
13673;DHT22;6909;52.202;9.876;2024-03-23T03:04:35;6.10;99.90
13673;DHT22;6909;52.202;9.876;2024-03-23T03:07:01;6.10;99.90
13673;DHT22;6909;52.202;9.876;2024-03-23T03:09:27;6.10;99.90
13673;DHT22;6909;52.202;9.876;2024-03-23T03:11:53;6.10;99.90
13673;DHT22;6909;52.202;9.876;2024-03-23T03:14:21;6.10;99.90
13673;DHT22;6909;52.202;9.876;2024-03-23T03:16:47;6.10;99.90
13673;DHT22;6909;52.202;9.876;2024-03-23T03:19:14;6.10;99.90
13673;DHT22;6909;52.202;9.876;2024-03-23T03:21:39;6.10;99.90
13673;DHT22;6909;52.202;9.876;2024-03-23T03:24:06;6.10;99.90
13673;DHT22;6909;52.202;9.876;2024-03-23T03:26:32;6.20;99.90
13673;DHT22;6909;52.202;9.876;2024-03-23T03:28:59;6.10;99.90
13673;DHT22;6909;52.202;9.876;2024-03-23T03:31:26;6.20;99.90
13673;DHT22;6909;52.202;9.876;2024-03-23T03:33:52;6.20;99.90
13673;DHT22;6909;52.202;9.876;2024-03-23T03:36:18;6.20;99.90
13673;DHT22;6909;52.202;9.876;2024-03-23T03:38:45;6.20;99.90
13673;DHT22;6909;52.202;9.876;2024-03-23T03:41:11;6.30;99.90
13673;DHT22;6909;52.202;9.876;2024-03-23T03:43:37;6.30;99.90
13673;DHT22;6909;52.202;9.876;2024-03-23T03:46:03;6.30;99.90
13673;DHT22;6909;52.202;9.876;2024-03-23T03:48:31;6.10;99.90
13673;DHT22;6909;52.202;9.876;2024-03-23T03:50:57;6.20;99.90
13673;DHT22;6909;52.202;9.876;2024-03-23T03:53:24;6.10;99.90
13673;DHT22;6909;52.202;9.876;2024-03-23T03:55:50;6.10;99.90
13673;DHT22;6909;52.202;9.876;2024-03-23T03:58:16;6.20;99.90
13673;DHT22;6909;52.202;9.876;2024-03-23T04:00:42;6.20;99.90
13673;DHT22;6909;52.202;9.876;2024-03-23T04:03:09;6.10;99.90
13673;DHT22;6909;52.202;9.876;2024-03-23T04:05:36;6.00;99.90
13673;DHT22;6909;52.202;9.876;2024-03-23T04:08:03;6.00;99.90
13673;DHT22;6909;52.202;9.876;2024-03-23T04:10:30;6.00;99.90
13673;DHT22;6909;52.202;9.876;2024-03-23T04:12:56;5.90;99.90
13673;DHT22;6909;52.202;9.876;2024-03-23T04:15:22;5.80;99.90
13673;DHT22;6909;52.202;9.876;2024-03-23T04:17:48;5.70;99.90
13673;DHT22;6909;52.202;9.876;2024-03-23T04:20:14;5.70;99.90
13673;DHT22;6909;52.202;9.876;2024-03-23T04:22:43;5.70;99.90
13673;DHT22;6909;52.202;9.876;2024-03-23T04:25:09;5.70;99.90
13673;DHT22;6909;52.202;9.876;2024-03-23T04:27:36;5.70;99.90
13673;DHT22;6909;52.202;9.876;2024-03-23T04:30:02;5.70;99.90
13673;DHT22;6909;52.202;9.876;2024-03-23T04:32:35;5.60;99.90
13673;DHT22;6909;52.202;9.876;2024-03-23T04:35:00;5.60;99.90
13673;DHT22;6909;52.202;9.876;2024-03-23T04:37:28;5.50;99.90
13673;DHT22;6909;52.202;9.876;2024-03-23T04:39:56;5.50;99.90
13673;DHT22;6909;52.202;9.876;2024-03-23T04:42:22;5.50;99.90
13673;DHT22;6909;52.202;9.876;2024-03-23T04:44:49;5.50;99.90
13673;DHT22;6909;52.202;9.876;2024-03-23T04:47:15;5.40;99.90
13673;DHT22;6909;52.202;9.876;2024-03-23T04:49:45;5.40;99.90
13673;DHT22;6909;52.202;9.876;2024-03-23T04:52:12;5.50;99.90
13673;DHT22;6909;52.202;9.876;2024-03-23T04:54:38;5.40;99.90
13673;DHT22;6909;52.202;9.876;2024-03-23T04:57:07;5.40;99.90
13673;DHT22;6909;52.202;9.876;2024-03-23T04:59:34;5.40;99.90
13673;DHT22;6909;52.202;9.876;2024-03-23T05:01:59;5.50;99.90
13673;DHT22;6909;52.202;9.876;2024-03-23T05:04:26;5.50;99.90
13673;DHT22;6909;52.202;9.876;2024-03-23T05:06:52;5.40;99.90
13673;DHT22;6909;52.202;9.876;2024-03-23T05:09:18;5.40;99.90
13673;DHT22;6909;52.202;9.876;2024-03-23T05:11:45;5.40;99.90
13673;DHT22;6909;52.202;9.876;2024-03-23T05:14:14;5.40;99.90
13673;DHT22;6909;52.202;9.876;2024-03-23T05:16:40;5.40;99.90
13673;DHT22;6909;52.202;9.876;2024-03-23T05:19:06;5.40;99.90
13673;DHT22;6909;52.202;9.876;2024-03-23T05:21:32;5.40;99.90
13673;DHT22;6909;52.202;9.876;2024-03-23T05:23:59;5.40;99.90
13673;DHT22;6909;52.202;9.876;2024-03-23T05:26:24;5.40;99.90
13673;DHT22;6909;52.202;9.876;2024-03-23T05:28:51;5.40;99.90
13673;DHT22;6909;52.202;9.876;2024-03-23T05:31:24;5.40;99.90
13673;DHT22;6909;52.202;9.876;2024-03-23T05:33:51;5.50;99.90
13673;DHT22;6909;52.202;9.876;2024-03-23T05:36:17;5.50;99.90
13673;DHT22;6909;52.202;9.876;2024-03-23T05:38:44;5.50;99.90
13673;DHT22;6909;52.202;9.876;2024-03-23T05:41:10;5.50;99.90
13673;DHT22;6909;52.202;9.876;2024-03-23T05:43:36;5.50;99.90
13673;DHT22;6909;52.202;9.876;2024-03-23T05:46:02;5.60;99.90
13673;DHT22;6909;52.202;9.876;2024-03-23T05:48:31;5.50;99.90
13673;DHT22;6909;52.202;9.876;2024-03-23T05:50:57;5.40;99.90
13673;DHT22;6909;52.202;9.876;2024-03-23T05:53:24;5.30;99.90
13673;DHT22;6909;52.202;9.876;2024-03-23T05:55:50;5.10;99.90
13673;DHT22;6909;52.202;9.876;2024-03-23T05:58:25;5.10;99.90
13673;DHT22;6909;52.202;9.876;2024-03-23T06:00:57;5.10;99.90
13673;DHT22;6909;52.202;9.876;2024-03-23T06:03:24;5.00;99.90
13673;DHT22;6909;52.202;9.876;2024-03-23T06:05:52;4.90;99.90
13673;DHT22;6909;52.202;9.876;2024-03-23T06:08:18;4.70;99.90
13673;DHT22;6909;52.202;9.876;2024-03-23T06:10:45;4.60;99.90
13673;DHT22;6909;52.202;9.876;2024-03-23T06:13:13;4.60;99.90
13673;DHT22;6909;52.202;9.876;2024-03-23T06:15:39;4.60;99.90
13673;DHT22;6909;52.202;9.876;2024-03-23T06:18:05;4.60;99.90
13673;DHT22;6909;52.202;9.876;2024-03-23T06:20:33;4.60;99.90
13673;DHT22;6909;52.202;9.876;2024-03-23T06:23:01;4.70;99.90
13673;DHT22;6909;52.202;9.876;2024-03-23T06:25:27;4.80;99.90
13673;DHT22;6909;52.202;9.876;2024-03-23T06:27:54;4.80;99.90
13673;DHT22;6909;52.202;9.876;2024-03-23T06:30:19;4.80;99.90
13673;DHT22;6909;52.202;9.876;2024-03-23T06:32:46;4.90;99.90
13673;DHT22;6909;52.202;9.876;2024-03-23T06:35:12;4.90;99.90
13673;DHT22;6909;52.202;9.876;2024-03-23T06:37:39;4.90;99.90
13673;DHT22;6909;52.202;9.876;2024-03-23T06:40:08;4.90;99.90
13673;DHT22;6909;52.202;9.876;2024-03-23T06:42:35;5.00;99.90
13673;DHT22;6909;52.202;9.876;2024-03-23T06:45:01;5.00;99.90
13673;DHT22;6909;52.202;9.876;2024-03-23T06:47:28;5.00;99.90
13673;DHT22;6909;52.202;9.876;2024-03-23T06:49:54;5.00;99.90
13673;DHT22;6909;52.202;9.876;2024-03-23T06:52:21;4.90;99.90
13673;DHT22;6909;52.202;9.876;2024-03-23T06:54:47;4.90;99.90
13673;DHT22;6909;52.202;9.876;2024-03-23T06:57:15;4.90;99.90
13673;DHT22;6909;52.202;9.876;2024-03-23T06:59:40;5.00;99.90
13673;DHT22;6909;52.202;9.876;2024-03-23T07:02:07;5.00;99.90
13673;DHT22;6909;52.202;9.876;2024-03-23T07:04:34;4.90;99.90
13673;DHT22;6909;52.202;9.876;2024-03-23T07:07:00;4.90;99.90
13673;DHT22;6909;52.202;9.876;2024-03-23T07:09:27;4.90;99.90
13673;DHT22;6909;52.202;9.876;2024-03-23T07:11:54;5.00;99.90
13673;DHT22;6909;52.202;9.876;2024-03-23T07:14:21;5.00;99.90
13673;DHT22;6909;52.202;9.876;2024-03-23T07:16:48;5.00;99.90
13673;DHT22;6909;52.202;9.876;2024-03-23T07:19:15;5.00;99.90
13673;DHT22;6909;52.202;9.876;2024-03-23T07:21:42;5.00;99.90
13673;DHT22;6909;52.202;9.876;2024-03-23T07:24:07;5.20;99.90
13673;DHT22;6909;52.202;9.876;2024-03-23T07:26:34;5.20;99.90
13673;DHT22;6909;52.202;9.876;2024-03-23T07:29:00;5.20;99.90
13673;DHT22;6909;52.202;9.876;2024-03-23T07:31:28;5.30;99.90
13673;DHT22;6909;52.202;9.876;2024-03-23T07:33:54;5.40;99.90
13673;DHT22;6909;52.202;9.876;2024-03-23T07:36:21;5.50;99.90
13673;DHT22;6909;52.202;9.876;2024-03-23T07:38:47;5.60;99.90
13673;DHT22;6909;52.202;9.876;2024-03-23T07:41:16;5.70;99.90
13673;DHT22;6909;52.202;9.876;2024-03-23T07:43:43;5.90;99.90
13673;DHT22;6909;52.202;9.876;2024-03-23T07:46:10;6.00;99.90
13673;DHT22;6909;52.202;9.876;2024-03-23T07:48:38;6.10;99.90
13673;DHT22;6909;52.202;9.876;2024-03-23T07:51:07;6.00;99.90
13673;DHT22;6909;52.202;9.876;2024-03-23T07:53:34;6.00;99.90
13673;DHT22;6909;52.202;9.876;2024-03-23T07:56:02;6.00;99.90
13673;DHT22;6909;52.202;9.876;2024-03-23T07:58:28;6.00;99.90
13673;DHT22;6909;52.202;9.876;2024-03-23T08:00:55;6.00;99.90
13673;DHT22;6909;52.202;9.876;2024-03-23T08:03:22;5.90;99.90
13673;DHT22;6909;52.202;9.876;2024-03-23T08:05:57;5.90;99.90
13673;DHT22;6909;52.202;9.876;2024-03-23T08:08:23;5.90;99.90
13673;DHT22;6909;52.202;9.876;2024-03-23T08:10:50;5.90;99.90
13673;DHT22;6909;52.202;9.876;2024-03-23T08:13:16;6.00;99.90
13673;DHT22;6909;52.202;9.876;2024-03-23T08:15:43;6.00;99.90
13673;DHT22;6909;52.202;9.876;2024-03-23T08:18:10;5.90;99.90
13673;DHT22;6909;52.202;9.876;2024-03-23T08:20:36;5.90;99.90
13673;DHT22;6909;52.202;9.876;2024-03-23T08:23:04;6.00;99.90
13673;DHT22;6909;52.202;9.876;2024-03-23T08:25:31;6.10;99.90
13673;DHT22;6909;52.202;9.876;2024-03-23T08:27:57;6.30;99.90
13673;DHT22;6909;52.202;9.876;2024-03-23T08:30:24;6.40;99.90
13673;DHT22;6909;52.202;9.876;2024-03-23T08:32:50;6.60;99.90
13673;DHT22;6909;52.202;9.876;2024-03-23T08:35:16;6.70;99.90
13673;DHT22;6909;52.202;9.876;2024-03-23T08:37:42;6.90;99.90
13673;DHT22;6909;52.202;9.876;2024-03-23T08:40:11;7.00;99.90
13673;DHT22;6909;52.202;9.876;2024-03-23T08:42:36;7.20;99.90
13673;DHT22;6909;52.202;9.876;2024-03-23T08:45:04;7.20;99.90
13673;DHT22;6909;52.202;9.876;2024-03-23T08:47:34;7.20;99.90
13673;DHT22;6909;52.202;9.876;2024-03-23T08:50:01;7.20;99.90
13673;DHT22;6909;52.202;9.876;2024-03-23T08:52:28;7.50;99.90
13673;DHT22;6909;52.202;9.876;2024-03-23T08:54:57;8.00;99.90
13673;DHT22;6909;52.202;9.876;2024-03-23T08:57:24;8.20;99.90
13673;DHT22;6909;52.202;9.876;2024-03-23T08:59:51;8.50;99.90
13673;DHT22;6909;52.202;9.876;2024-03-23T09:02:17;8.50;99.90
13673;DHT22;6909;52.202;9.876;2024-03-23T09:04:44;8.60;99.90
13673;DHT22;6909;52.202;9.876;2024-03-23T09:07:10;9.00;99.90
13673;DHT22;6909;52.202;9.876;2024-03-23T09:09:38;8.80;99.90
13673;DHT22;6909;52.202;9.876;2024-03-23T09:12:04;8.80;99.90
13673;DHT22;6909;52.202;9.876;2024-03-23T09:14:32;8.50;99.90
13673;DHT22;6909;52.202;9.876;2024-03-23T09:16:58;8.50;99.90
13673;DHT22;6909;52.202;9.876;2024-03-23T09:19:27;8.20;99.90
13673;DHT22;6909;52.202;9.876;2024-03-23T09:21:53;7.80;99.90
13673;DHT22;6909;52.202;9.876;2024-03-23T09:24:20;7.50;99.90
13673;DHT22;6909;52.202;9.876;2024-03-23T09:26:46;7.40;99.90
13673;DHT22;6909;52.202;9.876;2024-03-23T09:29:13;7.50;99.90
13673;DHT22;6909;52.202;9.876;2024-03-23T09:31:40;7.50;99.90
13673;DHT22;6909;52.202;9.876;2024-03-23T09:34:07;7.80;99.90
13673;DHT22;6909;52.202;9.876;2024-03-23T09:36:33;8.50;99.90
13673;DHT22;6909;52.202;9.876;2024-03-23T09:38:59;8.90;99.90
13673;DHT22;6909;52.202;9.876;2024-03-23T09:41:25;9.40;99.90
13673;DHT22;6909;52.202;9.876;2024-03-23T09:43:52;9.50;99.90
13673;DHT22;6909;52.202;9.876;2024-03-23T09:46:18;9.40;99.90
13673;DHT22;6909;52.202;9.876;2024-03-23T09:48:47;9.20;99.90
13673;DHT22;6909;52.202;9.876;2024-03-23T09:51:13;8.70;99.90
13673;DHT22;6909;52.202;9.876;2024-03-23T09:53:40;8.60;99.90
13673;DHT22;6909;52.202;9.876;2024-03-23T09:56:07;8.40;99.90
13673;DHT22;6909;52.202;9.876;2024-03-23T09:58:34;8.20;99.90
13673;DHT22;6909;52.202;9.876;2024-03-23T10:01:00;7.90;99.90
13673;DHT22;6909;52.202;9.876;2024-03-23T10:03:27;7.80;99.90
13673;DHT22;6909;52.202;9.876;2024-03-23T10:06:02;7.60;99.90
13673;DHT22;6909;52.202;9.876;2024-03-23T10:08:29;7.50;99.90
13673;DHT22;6909;52.202;9.876;2024-03-23T10:10:56;7.70;99.90
13673;DHT22;6909;52.202;9.876;2024-03-23T10:13:26;8.20;99.90
13673;DHT22;6909;52.202;9.876;2024-03-23T10:15:56;9.10;99.90
13673;DHT22;6909;52.202;9.876;2024-03-23T10:18:25;9.40;99.90
13673;DHT22;6909;52.202;9.876;2024-03-23T10:20:52;9.00;99.90
13673;DHT22;6909;52.202;9.876;2024-03-23T10:23:30;8.90;99.90
13673;DHT22;6909;52.202;9.876;2024-03-23T10:26:12;8.60;99.90
13673;DHT22;6909;52.202;9.876;2024-03-23T10:28:53;8.10;99.90
13673;DHT22;6909;52.202;9.876;2024-03-23T10:31:20;8.20;99.90
13673;DHT22;6909;52.202;9.876;2024-03-23T10:33:47;8.80;99.90
13673;DHT22;6909;52.202;9.876;2024-03-23T10:36:13;9.40;99.90
13673;DHT22;6909;52.202;9.876;2024-03-23T10:38:43;9.40;99.90
13673;DHT22;6909;52.202;9.876;2024-03-23T10:41:09;9.70;99.90
13673;DHT22;6909;52.202;9.876;2024-03-23T10:43:37;10.20;99.90
13673;DHT22;6909;52.202;9.876;2024-03-23T10:46:03;10.40;99.90
13673;DHT22;6909;52.202;9.876;2024-03-23T10:48:30;10.60;99.90
13673;DHT22;6909;52.202;9.876;2024-03-23T10:50:56;10.50;99.90
13673;DHT22;6909;52.202;9.876;2024-03-23T10:53:25;10.30;99.90
13673;DHT22;6909;52.202;9.876;2024-03-23T10:55:54;9.70;99.90
13673;DHT22;6909;52.202;9.876;2024-03-23T10:58:31;8.50;99.90
13673;DHT22;6909;52.202;9.876;2024-03-23T11:00:58;8.00;99.90
13673;DHT22;6909;52.202;9.876;2024-03-23T11:03:30;7.90;99.90
13673;DHT22;6909;52.202;9.876;2024-03-23T11:05:56;8.00;99.90
13673;DHT22;6909;52.202;9.876;2024-03-23T11:08:35;8.10;99.90
13673;DHT22;6909;52.202;9.876;2024-03-23T11:11:23;8.30;99.90
13673;DHT22;6909;52.202;9.876;2024-03-23T11:13:52;8.70;99.90
13673;DHT22;6909;52.202;9.876;2024-03-23T11:16:22;9.30;99.90
13673;DHT22;6909;52.202;9.876;2024-03-23T11:18:51;9.60;99.90
13673;DHT22;6909;52.202;9.876;2024-03-23T11:21:51;9.80;99.90
13673;DHT22;6909;52.202;9.876;2024-03-23T11:24:19;9.70;99.90
13673;DHT22;6909;52.202;9.876;2024-03-23T11:26:46;10.10;99.90
13673;DHT22;6909;52.202;9.876;2024-03-23T11:29:14;10.00;99.90
13673;DHT22;6909;52.202;9.876;2024-03-23T11:31:45;9.70;99.90
13673;DHT22;6909;52.202;9.876;2024-03-23T11:34:12;9.40;99.90
13673;DHT22;6909;52.202;9.876;2024-03-23T11:36:38;9.20;99.90
13673;DHT22;6909;52.202;9.876;2024-03-23T11:39:12;8.90;99.90
13673;DHT22;6909;52.202;9.876;2024-03-23T11:41:47;8.80;99.90
13673;DHT22;6909;52.202;9.876;2024-03-23T11:44:21;8.80;99.90
13673;DHT22;6909;52.202;9.876;2024-03-23T11:46:48;8.80;99.90
13673;DHT22;6909;52.202;9.876;2024-03-23T11:49:23;8.80;99.90
13673;DHT22;6909;52.202;9.876;2024-03-23T11:51:49;8.90;99.90
13673;DHT22;6909;52.202;9.876;2024-03-23T11:54:19;8.70;99.90
13673;DHT22;6909;52.202;9.876;2024-03-23T11:56:55;8.90;99.90
13673;DHT22;6909;52.202;9.876;2024-03-23T11:59:33;8.70;99.90
13673;DHT22;6909;52.202;9.876;2024-03-23T12:01:59;8.60;99.90
13673;DHT22;6909;52.202;9.876;2024-03-23T12:04:26;8.80;99.90
13673;DHT22;6909;52.202;9.876;2024-03-23T12:07:11;9.30;99.90
13673;DHT22;6909;52.202;9.876;2024-03-23T12:09:38;9.40;99.90
13673;DHT22;6909;52.202;9.876;2024-03-23T12:12:14;9.40;1.00
13673;DHT22;6909;52.202;9.876;2024-03-23T12:14:41;9.50;99.90
13673;DHT22;6909;52.202;9.876;2024-03-23T12:17:12;9.30;1.00
13673;DHT22;6909;52.202;9.876;2024-03-23T12:19:39;8.30;1.00
13673;DHT22;6909;52.202;9.876;2024-03-23T12:22:05;7.40;1.00
13673;DHT22;6909;52.202;9.876;2024-03-23T12:24:32;6.40;99.90
13673;DHT22;6909;52.202;9.876;2024-03-23T12:27:01;5.70;99.90
13673;DHT22;6909;52.202;9.876;2024-03-23T12:29:30;5.70;99.90
13673;DHT22;6909;52.202;9.876;2024-03-23T12:31:59;6.10;99.90
13673;DHT22;6909;52.202;9.876;2024-03-23T12:34:25;6.60;99.90
13673;DHT22;6909;52.202;9.876;2024-03-23T12:36:52;6.80;99.90
13673;DHT22;6909;52.202;9.876;2024-03-23T12:39:17;7.10;99.90
13673;DHT22;6909;52.202;9.876;2024-03-23T12:41:46;7.50;99.90
13673;DHT22;6909;52.202;9.876;2024-03-23T12:44:11;7.50;99.90
13673;DHT22;6909;52.202;9.876;2024-03-23T12:46:40;7.50;99.90
13673;DHT22;6909;52.202;9.876;2024-03-23T12:49:06;7.30;99.90
13673;DHT22;6909;52.202;9.876;2024-03-23T12:51:33;7.10;99.90
13673;DHT22;6909;52.202;9.876;2024-03-23T12:53:59;6.90;99.90
13673;DHT22;6909;52.202;9.876;2024-03-23T12:56:26;6.80;99.90
13673;DHT22;6909;52.202;9.876;2024-03-23T12:58:53;6.70;99.90
13673;DHT22;6909;52.202;9.876;2024-03-23T13:01:22;6.40;99.90
13673;DHT22;6909;52.202;9.876;2024-03-23T13:03:49;5.70;99.90
13673;DHT22;6909;52.202;9.876;2024-03-23T13:06:16;5.40;99.90
13673;DHT22;6909;52.202;9.876;2024-03-23T13:08:44;5.20;99.90
13673;DHT22;6909;52.202;9.876;2024-03-23T13:11:11;5.10;99.90
13673;DHT22;6909;52.202;9.876;2024-03-23T13:13:37;5.20;99.90
13673;DHT22;6909;52.202;9.876;2024-03-23T13:16:04;5.50;99.90
13673;DHT22;6909;52.202;9.876;2024-03-23T13:18:31;5.70;99.90
13673;DHT22;6909;52.202;9.876;2024-03-23T13:21:00;6.00;99.90
13673;DHT22;6909;52.202;9.876;2024-03-23T13:23:25;6.50;99.90
13673;DHT22;6909;52.202;9.876;2024-03-23T13:25:52;6.80;99.90
13673;DHT22;6909;52.202;9.876;2024-03-23T13:28:18;6.90;99.90
13673;DHT22;6909;52.202;9.876;2024-03-23T13:30:52;6.90;99.90
13673;DHT22;6909;52.202;9.876;2024-03-23T13:33:18;7.00;99.90
13673;DHT22;6909;52.202;9.876;2024-03-23T13:35:51;7.10;99.90
13673;DHT22;6909;52.202;9.876;2024-03-23T13:38:18;7.20;99.90
13673;DHT22;6909;52.202;9.876;2024-03-23T13:40:52;7.10;99.90
13673;DHT22;6909;52.202;9.876;2024-03-23T13:43:18;7.00;6.20
13673;DHT22;6909;52.202;9.876;2024-03-23T13:45:45;7.10;99.90
13673;DHT22;6909;52.202;9.876;2024-03-23T13:48:11;7.40;99.90
13673;DHT22;6909;52.202;9.876;2024-03-23T13:50:38;7.90;99.90
13673;DHT22;6909;52.202;9.876;2024-03-23T13:53:04;8.20;1.00
13673;DHT22;6909;52.202;9.876;2024-03-23T13:55:33;8.00;1.00
13673;DHT22;6909;52.202;9.876;2024-03-23T13:57:58;8.00;1.00
13673;DHT22;6909;52.202;9.876;2024-03-23T14:00:25;8.10;1.00
13673;DHT22;6909;52.202;9.876;2024-03-23T14:02:51;8.20;1.00
13673;DHT22;6909;52.202;9.876;2024-03-23T14:05:17;8.30;88.30
13673;DHT22;6909;52.202;9.876;2024-03-23T14:07:43;8.30;1.00
13673;DHT22;6909;52.202;9.876;2024-03-23T14:10:10;8.30;99.90
13673;DHT22;6909;52.202;9.876;2024-03-23T14:12:37;8.30;1.00
13673;DHT22;6909;52.202;9.876;2024-03-23T14:15:05;8.30;99.90
13673;DHT22;6909;52.202;9.876;2024-03-23T14:17:31;8.20;99.90
13673;DHT22;6909;52.202;9.876;2024-03-23T14:19:58;8.10;1.00
13673;DHT22;6909;52.202;9.876;2024-03-23T14:22:26;7.60;40.10
13673;DHT22;6909;52.202;9.876;2024-03-23T14:24:53;7.20;1.00
13673;DHT22;6909;52.202;9.876;2024-03-23T14:27:19;7.10;99.90
13673;DHT22;6909;52.202;9.876;2024-03-23T14:29:48;7.10;1.00
13673;DHT22;6909;52.202;9.876;2024-03-23T14:32:14;7.20;99.90
13673;DHT22;6909;52.202;9.876;2024-03-23T14:34:40;7.20;44.10
13673;DHT22;6909;52.202;9.876;2024-03-23T14:37:06;7.20;99.90
13673;DHT22;6909;52.202;9.876;2024-03-23T14:39:33;6.90;1.00
13673;DHT22;6909;52.202;9.876;2024-03-23T14:41:59;6.20;1.00
13673;DHT22;6909;52.202;9.876;2024-03-23T14:44:26;5.70;1.00
13673;DHT22;6909;52.202;9.876;2024-03-23T14:46:54;5.50;1.00
13673;DHT22;6909;52.202;9.876;2024-03-23T14:49:21;5.50;1.00
13673;DHT22;6909;52.202;9.876;2024-03-23T14:51:47;5.40;1.00
13673;DHT22;6909;52.202;9.876;2024-03-23T14:54:13;5.50;1.00
13673;DHT22;6909;52.202;9.876;2024-03-23T14:56:39;5.60;1.00
13673;DHT22;6909;52.202;9.876;2024-03-23T14:59:06;6.00;1.00
13673;DHT22;6909;52.202;9.876;2024-03-23T15:01:33;6.30;99.90
13673;DHT22;6909;52.202;9.876;2024-03-23T15:04:01;6.40;1.00
13673;DHT22;6909;52.202;9.876;2024-03-23T15:06:29;6.60;99.90
13673;DHT22;6909;52.202;9.876;2024-03-23T15:08:56;6.80;1.00
13673;DHT22;6909;52.202;9.876;2024-03-23T15:11:21;6.90;99.90
13673;DHT22;6909;52.202;9.876;2024-03-23T15:13:50;6.90;99.90
13673;DHT22;6909;52.202;9.876;2024-03-23T15:16:17;6.80;1.00
13673;DHT22;6909;52.202;9.876;2024-03-23T15:18:45;6.90;1.00
13673;DHT22;6909;52.202;9.876;2024-03-23T15:21:12;6.80;1.00
13673;DHT22;6909;52.202;9.876;2024-03-23T15:23:45;7.00;1.00
13673;DHT22;6909;52.202;9.876;2024-03-23T15:26:10;7.10;1.00
13673;DHT22;6909;52.202;9.876;2024-03-23T15:28:37;7.20;1.00
13673;DHT22;6909;52.202;9.876;2024-03-23T15:31:04;7.30;1.00
13673;DHT22;6909;52.202;9.876;2024-03-23T15:33:31;7.20;1.00
13673;DHT22;6909;52.202;9.876;2024-03-23T15:35:58;7.10;1.00
13673;DHT22;6909;52.202;9.876;2024-03-23T15:38:25;7.10;99.90
13673;DHT22;6909;52.202;9.876;2024-03-23T15:40:52;7.00;1.00
13673;DHT22;6909;52.202;9.876;2024-03-23T15:43:18;6.90;1.00
13673;DHT22;6909;52.202;9.876;2024-03-23T15:45:53;7.00;1.00
13673;DHT22;6909;52.202;9.876;2024-03-23T15:48:19;6.90;1.00
13673;DHT22;6909;52.202;9.876;2024-03-23T15:50:50;6.70;99.90
13673;DHT22;6909;52.202;9.876;2024-03-23T15:53:17;6.60;20.20
13673;DHT22;6909;52.202;9.876;2024-03-23T15:55:46;6.60;1.00
13673;DHT22;6909;52.202;9.876;2024-03-23T15:58:18;6.50;1.00
13673;DHT22;6909;52.202;9.876;2024-03-23T16:00:46;6.50;99.90
13673;DHT22;6909;52.202;9.876;2024-03-23T16:03:11;6.50;1.00
13673;DHT22;6909;52.202;9.876;2024-03-23T16:05:38;6.50;1.00
13673;DHT22;6909;52.202;9.876;2024-03-23T16:08:04;6.30;1.00
13673;DHT22;6909;52.202;9.876;2024-03-23T16:10:31;6.10;1.00
13673;DHT22;6909;52.202;9.876;2024-03-23T16:12:59;6.00;1.00
13673;DHT22;6909;52.202;9.876;2024-03-23T16:15:25;5.90;1.00
13673;DHT22;6909;52.202;9.876;2024-03-23T16:17:51;5.70;1.00
13673;DHT22;6909;52.202;9.876;2024-03-23T16:20:18;5.60;1.00
13673;DHT22;6909;52.202;9.876;2024-03-23T16:22:44;5.40;1.00
13673;DHT22;6909;52.202;9.876;2024-03-23T16:25:11;5.30;1.00
13673;DHT22;6909;52.202;9.876;2024-03-23T16:27:36;5.40;1.00
13673;DHT22;6909;52.202;9.876;2024-03-23T16:30:05;5.70;99.90
13673;DHT22;6909;52.202;9.876;2024-03-23T16:32:32;6.00;99.90
13673;DHT22;6909;52.202;9.876;2024-03-23T16:35:00;6.20;1.00
13673;DHT22;6909;52.202;9.876;2024-03-23T16:37:26;6.40;1.00
13673;DHT22;6909;52.202;9.876;2024-03-23T16:39:52;6.60;76.90
13673;DHT22;6909;52.202;9.876;2024-03-23T16:42:18;6.60;1.00
13673;DHT22;6909;52.202;9.876;2024-03-23T16:44:45;6.50;1.00
13673;DHT22;6909;52.202;9.876;2024-03-23T16:47:12;6.40;99.90
13673;DHT22;6909;52.202;9.876;2024-03-23T16:49:39;6.30;1.00
13673;DHT22;6909;52.202;9.876;2024-03-23T16:52:04;6.10;1.00
13673;DHT22;6909;52.202;9.876;2024-03-23T16:54:31;6.00;1.00
13673;DHT22;6909;52.202;9.876;2024-03-23T16:56:57;5.90;99.90